AGROMETEOROLOŠKI PORTAL
Vinorodna pokrajina

Temelj dobrega kmetovanja.

Pregled podatkov za lokacijo Trebnje DRSI, meteorološka postaja 18

Pregled senzorjev na lokaciji

ID Ime Zadnja
vrednost
Datum in čas
meritve
(lokalni čas)
Tip
senzorja
6170 Relativna zračna vlaga (2 m) (% RH) 54 % RH 14.4.2024 22:30 DRSI
6169 Temperatura (2 m) (°C) 17,9 °C 14.4.2024 22:30 DRSI
6172 Smer vetra (2 m) (°) 282 ° 14.4.2024 22:30 DRSI
6171 Hitrost vetra (2 m) (km/h) 2 km/h 14.4.2024 22:30 DRSI

Pregled podatkov zadnjih 24 ur

Zap.
št.
Datum in čas
(lokalni čas)
Trebnje DRSI
Relativna
zračna
vlaga
(2
m)
Temperatura
(2
m)
Smer
vetra
(2
m)
Hitrost
vetra
(2
m)
1 14.4.2024 22:30 54,3 17,9 282,4 2
2 14.4.2024 22:00 52 18,6 269,7 3,1
3 14.4.2024 21:30 52,3 18,8 256 3,2
4 14.4.2024 21:00 52 19,3 245,3 2,5
5 14.4.2024 20:30 50,7 20,2 247 1,3
6 14.4.2024 20:00 44,7 22,6 248,9 1,7
7 14.4.2024 19:30 38,7 25,7 274,6 3
8 14.4.2024 19:00 36,7 27,1 279 3,5
9 14.4.2024 18:30 36,3 27,6 291 5,5
10 14.4.2024 18:00 34,7 28 285,3 7,3
11 14.4.2024 17:30 34,3 28,3 292 10,1
12 14.4.2024 17:00 34,7 28,7 290 11,9
13 14.4.2024 16:30 33,3 29 289 11,9
14 14.4.2024 16:00 32 29,2 281,4 8,3
15 14.4.2024 15:30 32 29,2 280,6 11
16 14.4.2024 15:00 33,7 29,1 281,7 9,6
17 14.4.2024 14:30 37 28,9 299,2 10,1
18 14.4.2024 14:00 38,3 28,5 295,7 10,1
19 14.4.2024 13:30 42 27,9 287,2 8,3
20 14.4.2024 13:00 44,7 27,5 307,1 7,3
21 14.4.2024 12:30 47 26,4 292 6,7
22 14.4.2024 12:00 50,7 25,2 305,1 6,7
23 14.4.2024 11:30 56,3 24,2 269,7 6,6
24 14.4.2024 11:00 60 23,1 282,1 5,4
25 14.4.2024 10:30 63,7 21,8 175,3 1,2
26 14.4.2024 10:00 72 19,7 315,3 2,4
27 14.4.2024 09:30 75,7 18 318 1,1
28 14.4.2024 09:00 81,3 15 301 1,6
29 14.4.2024 08:30 84,7 12,1 329,7 2,4
30 14.4.2024 08:00 86 10,3 351,3 1,7
31 14.4.2024 07:30 87 8,7 52 1,3
32 14.4.2024 07:00 87 8,1 245,5 0,6
33 14.4.2024 06:30 87 8 92,7 1,2
34 14.4.2024 06:00 87 8,3 259,1 1
35 14.4.2024 05:30 86,7 8,7 264 1
36 14.4.2024 05:00 85,7 8,9 283 1,7
37 14.4.2024 04:30 85,3 9,1 59,1 1,3
38 14.4.2024 04:00 85 9,5 206,1 0,5
39 14.4.2024 03:30 85 9,8 224,4 0,6
40 14.4.2024 03:00 85 10 173,3 0,5
41 14.4.2024 02:30 84 10,7 279,3 1,6
42 14.4.2024 02:00 83,7 10,9 277,1 1,2
43 14.4.2024 01:30 82,7 11,2 66,4 1,6
44 14.4.2024 01:00 82,3 11,5 240,2 1,2
45 14.4.2024 00:30 81,7 11,9 278 1,7